sensor_id;sensor_type;location;lat;lon;timestamp;P1;durP1;ratioP1;P2;durP2;ratioP2
78664;SDS011;67981;51.022;-2.870;2023-08-06T00:01:48;9.35;;;3.00;;
78664;SDS011;67981;51.022;-2.870;2023-08-06T00:04:13;7.65;;;3.33;;
78664;SDS011;67981;51.022;-2.870;2023-08-06T00:06:39;8.35;;;3.28;;
78664;SDS011;67981;51.022;-2.870;2023-08-06T00:09:04;7.28;;;2.80;;
78664;SDS011;67981;51.022;-2.870;2023-08-06T00:11:30;6.25;;;2.78;;
78664;SDS011;67981;51.022;-2.870;2023-08-06T00:13:55;7.70;;;2.53;;
78664;SDS011;67981;51.022;-2.870;2023-08-06T00:16:20;6.90;;;2.87;;
78664;SDS011;67981;51.022;-2.870;2023-08-06T00:18:46;7.05;;;2.88;;
78664;SDS011;67981;51.022;-2.870;2023-08-06T00:21:11;8.25;;;3.42;;
78664;SDS011;67981;51.022;-2.870;2023-08-06T00:23:37;5.85;;;2.60;;
78664;SDS011;67981;51.022;-2.870;2023-08-06T00:26:03;7.00;;;2.17;;
78664;SDS011;67981;51.022;-2.870;2023-08-06T00:28:28;5.65;;;2.45;;
78664;SDS011;67981;51.022;-2.870;2023-08-06T00:30:54;8.80;;;2.90;;
78664;SDS011;67981;51.022;-2.870;2023-08-06T00:33:20;7.75;;;2.80;;
78664;SDS011;67981;51.022;-2.870;2023-08-06T00:35:46;8.73;;;3.22;;
78664;SDS011;67981;51.022;-2.870;2023-08-06T00:38:11;6.85;;;2.60;;
78664;SDS011;67981;51.022;-2.870;2023-08-06T00:40:37;7.18;;;2.53;;
78664;SDS011;67981;51.022;-2.870;2023-08-06T00:43:03;8.80;;;2.05;;
78664;SDS011;67981;51.022;-2.870;2023-08-06T00:45:28;5.95;;;2.22;;
78664;SDS011;67981;51.022;-2.870;2023-08-06T00:47:55;7.70;;;2.70;;
78664;SDS011;67981;51.022;-2.870;2023-08-06T00:50:21;9.70;;;2.97;;
78664;SDS011;67981;51.022;-2.870;2023-08-06T00:52:48;7.85;;;2.83;;
78664;SDS011;67981;51.022;-2.870;2023-08-06T00:55:14;4.50;;;2.33;;
78664;SDS011;67981;51.022;-2.870;2023-08-06T00:57:40;7.25;;;2.90;;
78664;SDS011;67981;51.022;-2.870;2023-08-06T01:00:06;6.57;;;2.42;;
78664;SDS011;67981;51.022;-2.870;2023-08-06T01:02:32;8.50;;;2.28;;
78664;SDS011;67981;51.022;-2.870;2023-08-06T01:04:58;6.78;;;3.22;;
78664;SDS011;67981;51.022;-2.870;2023-08-06T01:07:33;6.00;;;2.50;;
78664;SDS011;67981;51.022;-2.870;2023-08-06T01:15:43;4.32;;;2.00;;
78664;SDS011;67981;51.022;-2.870;2023-08-06T01:18:11;5.20;;;2.72;;
78664;SDS011;67981;51.022;-2.870;2023-08-06T01:20:37;7.70;;;2.42;;
78664;SDS011;67981;51.022;-2.870;2023-08-06T01:23:02;8.73;;;2.63;;
78664;SDS011;67981;51.022;-2.870;2023-08-06T01:25:34;8.00;;;2.97;;
78664;SDS011;67981;51.022;-2.870;2023-08-06T01:28:15;6.10;;;2.28;;
78664;SDS011;67981;51.022;-2.870;2023-08-06T01:30:47;4.68;;;2.42;;
78664;SDS011;67981;51.022;-2.870;2023-08-06T01:33:16;10.32;;;3.38;;
78664;SDS011;67981;51.022;-2.870;2023-08-06T01:35:46;7.15;;;2.38;;
78664;SDS011;67981;51.022;-2.870;2023-08-06T01:38:13;5.03;;;2.55;;
78664;SDS011;67981;51.022;-2.870;2023-08-06T01:40:39;11.98;;;3.50;;
78664;SDS011;67981;51.022;-2.870;2023-08-06T01:43:04;9.35;;;2.78;;
78664;SDS011;67981;51.022;-2.870;2023-08-06T01:45:30;7.55;;;2.88;;
78664;SDS011;67981;51.022;-2.870;2023-08-06T01:47:55;9.07;;;2.92;;
78664;SDS011;67981;51.022;-2.870;2023-08-06T01:50:20;8.57;;;2.88;;
78664;SDS011;67981;51.022;-2.870;2023-08-06T01:52:46;7.93;;;2.22;;
78664;SDS011;67981;51.022;-2.870;2023-08-06T01:55:11;4.77;;;3.13;;
78664;SDS011;67981;51.022;-2.870;2023-08-06T01:57:36;9.70;;;2.95;;
78664;SDS011;67981;51.022;-2.870;2023-08-06T02:00:02;6.07;;;2.55;;
78664;SDS011;67981;51.022;-2.870;2023-08-06T02:02:28;8.35;;;2.90;;
78664;SDS011;67981;51.022;-2.870;2023-08-06T02:04:54;5.20;;;2.42;;
78664;SDS011;67981;51.022;-2.870;2023-08-06T02:07:19;5.55;;;2.38;;
78664;SDS011;67981;51.022;-2.870;2023-08-06T02:09:44;8.95;;;2.70;;
78664;SDS011;67981;51.022;-2.870;2023-08-06T02:12:10;9.10;;;2.77;;
78664;SDS011;67981;51.022;-2.870;2023-08-06T02:14:35;6.57;;;2.47;;
78664;SDS011;67981;51.022;-2.870;2023-08-06T02:17:00;8.15;;;2.78;;
78664;SDS011;67981;51.022;-2.870;2023-08-06T02:19:26;7.82;;;2.85;;
78664;SDS011;67981;51.022;-2.870;2023-08-06T02:21:51;9.75;;;3.30;;
78664;SDS011;67981;51.022;-2.870;2023-08-06T02:24:17;8.50;;;2.50;;
78664;SDS011;67981;51.022;-2.870;2023-08-06T02:26:42;4.80;;;1.95;;
78664;SDS011;67981;51.022;-2.870;2023-08-06T02:29:07;9.37;;;2.57;;
78664;SDS011;67981;51.022;-2.870;2023-08-06T02:31:33;8.23;;;2.55;;
78664;SDS011;67981;51.022;-2.870;2023-08-06T02:33:58;6.53;;;2.60;;
78664;SDS011;67981;51.022;-2.870;2023-08-06T02:36:24;5.35;;;2.53;;
78664;SDS011;67981;51.022;-2.870;2023-08-06T02:38:49;6.50;;;2.75;;
78664;SDS011;67981;51.022;-2.870;2023-08-06T02:41:15;7.95;;;2.72;;
78664;SDS011;67981;51.022;-2.870;2023-08-06T02:43:40;8.63;;;3.50;;
78664;SDS011;67981;51.022;-2.870;2023-08-06T02:46:05;5.97;;;2.83;;
78664;SDS011;67981;51.022;-2.870;2023-08-06T02:48:31;5.90;;;2.45;;
78664;SDS011;67981;51.022;-2.870;2023-08-06T02:50:57;7.88;;;2.72;;
78664;SDS011;67981;51.022;-2.870;2023-08-06T02:53:24;9.82;;;3.65;;
78664;SDS011;67981;51.022;-2.870;2023-08-06T02:55:49;5.80;;;2.70;;
78664;SDS011;67981;51.022;-2.870;2023-08-06T02:58:15;10.15;;;3.08;;
78664;SDS011;67981;51.022;-2.870;2023-08-06T03:00:41;7.28;;;2.35;;
78664;SDS011;67981;51.022;-2.870;2023-08-06T03:03:08;8.70;;;3.53;;
78664;SDS011;67981;51.022;-2.870;2023-08-06T03:05:33;7.18;;;3.40;;
78664;SDS011;67981;51.022;-2.870;2023-08-06T03:07:59;5.78;;;2.45;;
78664;SDS011;67981;51.022;-2.870;2023-08-06T03:10:24;5.65;;;2.80;;
78664;SDS011;67981;51.022;-2.870;2023-08-06T03:12:49;10.85;;;3.03;;
78664;SDS011;67981;51.022;-2.870;2023-08-06T03:15:15;4.18;;;2.40;;
78664;SDS011;67981;51.022;-2.870;2023-08-06T03:17:40;7.28;;;2.88;;
78664;SDS011;67981;51.022;-2.870;2023-08-06T03:20:06;10.38;;;3.00;;
78664;SDS011;67981;51.022;-2.870;2023-08-06T03:22:32;8.02;;;3.88;;
78664;SDS011;67981;51.022;-2.870;2023-08-06T03:24:57;8.40;;;2.87;;
78664;SDS011;67981;51.022;-2.870;2023-08-06T03:27:22;9.57;;;3.50;;
78664;SDS011;67981;51.022;-2.870;2023-08-06T03:29:51;5.32;;;2.55;;
78664;SDS011;67981;51.022;-2.870;2023-08-06T03:32:16;8.15;;;2.83;;
78664;SDS011;67981;51.022;-2.870;2023-08-06T03:34:42;5.30;;;2.50;;
78664;SDS011;67981;51.022;-2.870;2023-08-06T03:37:07;9.35;;;3.65;;
78664;SDS011;67981;51.022;-2.870;2023-08-06T03:39:33;5.32;;;2.30;;
78664;SDS011;67981;51.022;-2.870;2023-08-06T03:41:58;5.57;;;2.60;;
78664;SDS011;67981;51.022;-2.870;2023-08-06T03:44:24;8.63;;;3.08;;
78664;SDS011;67981;51.022;-2.870;2023-08-06T03:46:49;7.93;;;3.28;;
78664;SDS011;67981;51.022;-2.870;2023-08-06T03:49:14;6.45;;;3.05;;
78664;SDS011;67981;51.022;-2.870;2023-08-06T03:51:40;7.90;;;2.27;;
78664;SDS011;67981;51.022;-2.870;2023-08-06T03:54:05;9.85;;;2.97;;
78664;SDS011;67981;51.022;-2.870;2023-08-06T03:56:30;5.53;;;2.45;;
78664;SDS011;67981;51.022;-2.870;2023-08-06T03:58:56;12.27;;;3.28;;
78664;SDS011;67981;51.022;-2.870;2023-08-06T04:01:21;6.38;;;3.30;;
78664;SDS011;67981;51.022;-2.870;2023-08-06T04:03:47;5.83;;;2.70;;
78664;SDS011;67981;51.022;-2.870;2023-08-06T04:06:12;11.75;;;3.17;;
78664;SDS011;67981;51.022;-2.870;2023-08-06T04:08:37;11.98;;;3.03;;
78664;SDS011;67981;51.022;-2.870;2023-08-06T04:11:03;5.50;;;2.60;;
78664;SDS011;67981;51.022;-2.870;2023-08-06T04:13:28;9.20;;;3.45;;
78664;SDS011;67981;51.022;-2.870;2023-08-06T04:15:54;7.50;;;2.20;;
78664;SDS011;67981;51.022;-2.870;2023-08-06T04:18:19;4.43;;;2.22;;
78664;SDS011;67981;51.022;-2.870;2023-08-06T04:20:45;6.70;;;2.53;;
78664;SDS011;67981;51.022;-2.870;2023-08-06T04:23:11;6.28;;;2.63;;
78664;SDS011;67981;51.022;-2.870;2023-08-06T04:25:37;7.43;;;2.35;;
78664;SDS011;67981;51.022;-2.870;2023-08-06T04:28:02;6.78;;;2.78;;
78664;SDS011;67981;51.022;-2.870;2023-08-06T04:30:28;5.50;;;2.85;;
78664;SDS011;67981;51.022;-2.870;2023-08-06T04:32:53;5.97;;;2.28;;
78664;SDS011;67981;51.022;-2.870;2023-08-06T04:35:19;6.45;;;2.28;;
78664;SDS011;67981;51.022;-2.870;2023-08-06T04:37:44;4.83;;;2.27;;
78664;SDS011;67981;51.022;-2.870;2023-08-06T04:40:09;5.87;;;2.80;;
78664;SDS011;67981;51.022;-2.870;2023-08-06T04:42:35;5.53;;;2.45;;
78664;SDS011;67981;51.022;-2.870;2023-08-06T04:45:01;8.48;;;2.72;;
78664;SDS011;67981;51.022;-2.870;2023-08-06T04:47:27;8.15;;;3.67;;
78664;SDS011;67981;51.022;-2.870;2023-08-06T04:49:52;9.98;;;3.30;;
78664;SDS011;67981;51.022;-2.870;2023-08-06T04:52:18;9.77;;;3.47;;
78664;SDS011;67981;51.022;-2.870;2023-08-06T04:54:43;8.90;;;3.20;;
78664;SDS011;67981;51.022;-2.870;2023-08-06T04:57:09;7.43;;;2.70;;
78664;SDS011;67981;51.022;-2.870;2023-08-06T04:59:35;7.18;;;2.03;;
78664;SDS011;67981;51.022;-2.870;2023-08-06T05:02:00;7.13;;;2.63;;
78664;SDS011;67981;51.022;-2.870;2023-08-06T05:04:26;5.85;;;2.20;;
78664;SDS011;67981;51.022;-2.870;2023-08-06T05:06:52;4.35;;;2.03;;
78664;SDS011;67981;51.022;-2.870;2023-08-06T05:09:17;6.38;;;2.30;;
78664;SDS011;67981;51.022;-2.870;2023-08-06T05:11:43;5.28;;;2.65;;
78664;SDS011;67981;51.022;-2.870;2023-08-06T05:14:08;7.07;;;2.10;;
78664;SDS011;67981;51.022;-2.870;2023-08-06T05:16:34;6.43;;;1.95;;
78664;SDS011;67981;51.022;-2.870;2023-08-06T05:18:59;7.43;;;1.98;;
78664;SDS011;67981;51.022;-2.870;2023-08-06T05:21:24;7.93;;;1.73;;
78664;SDS011;67981;51.022;-2.870;2023-08-06T05:23:50;5.55;;;1.85;;
78664;SDS011;67981;51.022;-2.870;2023-08-06T05:26:15;7.03;;;2.47;;
78664;SDS011;67981;51.022;-2.870;2023-08-06T05:28:43;8.20;;;2.35;;
78664;SDS011;67981;51.022;-2.870;2023-08-06T05:31:09;4.75;;;1.77;;
78664;SDS011;67981;51.022;-2.870;2023-08-06T05:33:35;4.43;;;2.05;;
78664;SDS011;67981;51.022;-2.870;2023-08-06T05:36:00;4.07;;;2.00;;
78664;SDS011;67981;51.022;-2.870;2023-08-06T05:38:26;5.13;;;2.17;;
78664;SDS011;67981;51.022;-2.870;2023-08-06T05:40:51;5.20;;;1.83;;
78664;SDS011;67981;51.022;-2.870;2023-08-06T05:43:17;4.05;;;2.38;;
78664;SDS011;67981;51.022;-2.870;2023-08-06T05:45:45;5.47;;;2.07;;
78664;SDS011;67981;51.022;-2.870;2023-08-06T05:48:14;4.53;;;1.88;;
78664;SDS011;67981;51.022;-2.870;2023-08-06T05:50:39;6.22;;;1.83;;
78664;SDS011;67981;51.022;-2.870;2023-08-06T05:53:04;6.78;;;1.98;;
78664;SDS011;67981;51.022;-2.870;2023-08-06T05:55:30;4.43;;;1.75;;
78664;SDS011;67981;51.022;-2.870;2023-08-06T05:57:57;7.22;;;2.38;;
78664;SDS011;67981;51.022;-2.870;2023-08-06T06:00:22;7.13;;;2.08;;
78664;SDS011;67981;51.022;-2.870;2023-08-06T06:02:48;3.97;;;1.55;;
78664;SDS011;67981;51.022;-2.870;2023-08-06T06:05:13;2.50;;;1.60;;
78664;SDS011;67981;51.022;-2.870;2023-08-06T06:07:39;3.15;;;1.67;;
78664;SDS011;67981;51.022;-2.870;2023-08-06T06:10:04;1.92;;;1.17;;
78664;SDS011;67981;51.022;-2.870;2023-08-06T06:12:30;4.75;;;1.60;;
78664;SDS011;67981;51.022;-2.870;2023-08-06T06:14:55;5.65;;;1.48;;
78664;SDS011;67981;51.022;-2.870;2023-08-06T06:17:21;4.97;;;2.25;;
78664;SDS011;67981;51.022;-2.870;2023-08-06T06:19:46;5.32;;;2.13;;
78664;SDS011;67981;51.022;-2.870;2023-08-06T06:22:12;5.25;;;2.30;;
78664;SDS011;67981;51.022;-2.870;2023-08-06T06:24:37;3.92;;;1.88;;
78664;SDS011;67981;51.022;-2.870;2023-08-06T06:27:03;8.93;;;1.75;;
78664;SDS011;67981;51.022;-2.870;2023-08-06T06:29:29;5.82;;;1.77;;
78664;SDS011;67981;51.022;-2.870;2023-08-06T06:31:54;7.70;;;1.90;;
78664;SDS011;67981;51.022;-2.870;2023-08-06T06:34:20;5.97;;;1.88;;
78664;SDS011;67981;51.022;-2.870;2023-08-06T06:36:45;6.00;;;1.58;;
78664;SDS011;67981;51.022;-2.870;2023-08-06T06:39:11;4.05;;;1.55;;
78664;SDS011;67981;51.022;-2.870;2023-08-06T06:41:37;6.25;;;1.98;;
78664;SDS011;67981;51.022;-2.870;2023-08-06T06:44:02;4.53;;;1.48;;
78664;SDS011;67981;51.022;-2.870;2023-08-06T06:46:28;3.72;;;1.08;;
78664;SDS011;67981;51.022;-2.870;2023-08-06T06:48:53;7.53;;;1.65;;
78664;SDS011;67981;51.022;-2.870;2023-08-06T06:51:18;4.07;;;1.67;;
78664;SDS011;67981;51.022;-2.870;2023-08-06T06:53:44;3.72;;;1.42;;
78664;SDS011;67981;51.022;-2.870;2023-08-06T06:56:09;5.40;;;1.75;;
78664;SDS011;67981;51.022;-2.870;2023-08-06T06:58:35;2.72;;;1.23;;
78664;SDS011;67981;51.022;-2.870;2023-08-06T07:01:00;6.30;;;1.80;;
78664;SDS011;67981;51.022;-2.870;2023-08-06T07:03:25;3.08;;;1.27;;
78664;SDS011;67981;51.022;-2.870;2023-08-06T07:05:51;7.15;;;1.55;;
78664;SDS011;67981;51.022;-2.870;2023-08-06T07:08:16;2.95;;;1.92;;
78664;SDS011;67981;51.022;-2.870;2023-08-06T07:10:42;3.97;;;1.75;;
78664;SDS011;67981;51.022;-2.870;2023-08-06T07:13:08;5.50;;;1.63;;
78664;SDS011;67981;51.022;-2.870;2023-08-06T07:15:35;3.72;;;1.70;;
78664;SDS011;67981;51.022;-2.870;2023-08-06T07:18:00;6.65;;;1.88;;
78664;SDS011;67981;51.022;-2.870;2023-08-06T07:20:26;2.95;;;1.35;;
78664;SDS011;67981;51.022;-2.870;2023-08-06T07:22:56;5.68;;;1.80;;
78664;SDS011;67981;51.022;-2.870;2023-08-06T07:25:22;4.63;;;2.15;;
78664;SDS011;67981;51.022;-2.870;2023-08-06T07:27:47;5.57;;;2.03;;
78664;SDS011;67981;51.022;-2.870;2023-08-06T07:30:12;4.00;;;1.65;;
78664;SDS011;67981;51.022;-2.870;2023-08-06T07:32:38;3.00;;;1.88;;
78664;SDS011;67981;51.022;-2.870;2023-08-06T07:35:04;3.38;;;1.33;;
78664;SDS011;67981;51.022;-2.870;2023-08-06T07:37:29;4.93;;;1.15;;
78664;SDS011;67981;51.022;-2.870;2023-08-06T07:39:55;2.88;;;1.15;;
78664;SDS011;67981;51.022;-2.870;2023-08-06T07:42:21;1.67;;;1.13;;
78664;SDS011;67981;51.022;-2.870;2023-08-06T07:45:05;3.45;;;1.65;;
78664;SDS011;67981;51.022;-2.870;2023-08-06T07:47:32;2.90;;;1.30;;
78664;SDS011;67981;51.022;-2.870;2023-08-06T07:49:57;4.40;;;1.30;;
78664;SDS011;67981;51.022;-2.870;2023-08-06T07:52:22;4.43;;;1.50;;
78664;SDS011;67981;51.022;-2.870;2023-08-06T07:54:48;6.55;;;2.03;;
78664;SDS011;67981;51.022;-2.870;2023-08-06T07:57:13;2.38;;;1.02;;
78664;SDS011;67981;51.022;-2.870;2023-08-06T07:59:40;6.60;;;1.50;;
78664;SDS011;67981;51.022;-2.870;2023-08-06T08:02:05;2.13;;;0.88;;
78664;SDS011;67981;51.022;-2.870;2023-08-06T08:04:30;2.53;;;0.90;;
78664;SDS011;67981;51.022;-2.870;2023-08-06T08:06:56;2.72;;;1.08;;
78664;SDS011;67981;51.022;-2.870;2023-08-06T08:09:21;1.65;;;0.70;;
78664;SDS011;67981;51.022;-2.870;2023-08-06T08:11:47;2.00;;;0.82;;
78664;SDS011;67981;51.022;-2.870;2023-08-06T08:14:12;3.00;;;1.00;;
78664;SDS011;67981;51.022;-2.870;2023-08-06T08:16:38;2.03;;;1.17;;
78664;SDS011;67981;51.022;-2.870;2023-08-06T08:19:03;2.30;;;0.80;;
78664;SDS011;67981;51.022;-2.870;2023-08-06T08:21:29;6.82;;;1.52;;
78664;SDS011;67981;51.022;-2.870;2023-08-06T08:23:54;2.67;;;1.00;;
78664;SDS011;67981;51.022;-2.870;2023-08-06T08:26:19;2.53;;;0.63;;
78664;SDS011;67981;51.022;-2.870;2023-08-06T08:28:45;7.65;;;1.17;;
78664;SDS011;67981;51.022;-2.870;2023-08-06T08:31:10;1.20;;;1.00;;
78664;SDS011;67981;51.022;-2.870;2023-08-06T08:33:39;1.98;;;0.88;;
78664;SDS011;67981;51.022;-2.870;2023-08-06T08:36:05;2.08;;;1.05;;
78664;SDS011;67981;51.022;-2.870;2023-08-06T08:38:30;2.42;;;1.15;;
78664;SDS011;67981;51.022;-2.870;2023-08-06T08:40:55;2.07;;;0.90;;
78664;SDS011;67981;51.022;-2.870;2023-08-06T08:43:21;4.28;;;1.30;;
78664;SDS011;67981;51.022;-2.870;2023-08-06T08:45:50;3.70;;;1.25;;
78664;SDS011;67981;51.022;-2.870;2023-08-06T08:48:17;2.30;;;1.27;;
78664;SDS011;67981;51.022;-2.870;2023-08-06T08:50:44;1.05;;;0.65;;
78664;SDS011;67981;51.022;-2.870;2023-08-06T08:53:12;1.92;;;1.00;;
78664;SDS011;67981;51.022;-2.870;2023-08-06T08:55:40;2.17;;;1.23;;
78664;SDS011;67981;51.022;-2.870;2023-08-06T08:58:07;3.67;;;1.08;;
78664;SDS011;67981;51.022;-2.870;2023-08-06T09:00:33;7.18;;;1.40;;
78664;SDS011;67981;51.022;-2.870;2023-08-06T09:02:59;3.03;;;0.90;;
78664;SDS011;67981;51.022;-2.870;2023-08-06T09:05:28;4.35;;;1.30;;
78664;SDS011;67981;51.022;-2.870;2023-08-06T09:07:56;3.08;;;0.98;;
78664;SDS011;67981;51.022;-2.870;2023-08-06T09:10:28;2.05;;;1.02;;
78664;SDS011;67981;51.022;-2.870;2023-08-06T09:12:53;1.55;;;0.90;;
78664;SDS011;67981;51.022;-2.870;2023-08-06T09:15:24;2.97;;;0.80;;
78664;SDS011;67981;51.022;-2.870;2023-08-06T09:17:51;2.85;;;1.10;;
78664;SDS011;67981;51.022;-2.870;2023-08-06T09:20:20;4.78;;;1.70;;
78664;SDS011;67981;51.022;-2.870;2023-08-06T09:22:46;3.15;;;0.93;;
78664;SDS011;67981;51.022;-2.870;2023-08-06T09:25:13;2.33;;;0.93;;
78664;SDS011;67981;51.022;-2.870;2023-08-06T09:27:48;1.08;;;0.60;;
78664;SDS011;67981;51.022;-2.870;2023-08-06T09:30:19;4.55;;;1.15;;
78664;SDS011;67981;51.022;-2.870;2023-08-06T09:32:56;3.83;;;1.55;;
78664;SDS011;67981;51.022;-2.870;2023-08-06T09:35:22;3.70;;;2.00;;
78664;SDS011;67981;51.022;-2.870;2023-08-06T09:37:47;4.97;;;1.15;;
78664;SDS011;67981;51.022;-2.870;2023-08-06T09:40:29;1.73;;;0.63;;
78664;SDS011;67981;51.022;-2.870;2023-08-06T09:42:55;3.05;;;0.70;;
78664;SDS011;67981;51.022;-2.870;2023-08-06T09:45:22;1.92;;;0.88;;
78664;SDS011;67981;51.022;-2.870;2023-08-06T09:47:52;6.13;;;2.03;;
78664;SDS011;67981;51.022;-2.870;2023-08-06T09:50:20;1.98;;;0.80;;
78664;SDS011;67981;51.022;-2.870;2023-08-06T16:21:04;3.63;;;1.73;;
78664;SDS011;67981;51.022;-2.870;2023-08-06T16:27:17;2.15;;;1.15;;
78664;SDS011;67981;51.022;-2.870;2023-08-06T16:37:01;4.32;;;1.85;;
78664;SDS011;67981;51.022;-2.870;2023-08-06T16:39:28;1.73;;;1.15;;
78664;SDS011;67981;51.022;-2.870;2023-08-06T16:41:54;2.88;;;1.23;;
78664;SDS011;67981;51.022;-2.870;2023-08-06T16:44:22;2.72;;;1.23;;
78664;SDS011;67981;51.022;-2.870;2023-08-06T16:46:48;6.53;;;1.43;;
78664;SDS011;67981;51.022;-2.870;2023-08-06T16:49:13;2.37;;;1.30;;
78664;SDS011;67981;51.022;-2.870;2023-08-06T16:51:38;4.20;;;1.30;;
78664;SDS011;67981;51.022;-2.870;2023-08-06T16:54:04;2.65;;;1.30;;
78664;SDS011;67981;51.022;-2.870;2023-08-06T16:56:29;3.70;;;1.33;;
78664;SDS011;67981;51.022;-2.870;2023-08-06T16:58:55;5.15;;;1.92;;
78664;SDS011;67981;51.022;-2.870;2023-08-06T17:01:20;16.35;;;8.68;;
78664;SDS011;67981;51.022;-2.870;2023-08-06T17:03:45;12.25;;;5.15;;
78664;SDS011;67981;51.022;-2.870;2023-08-06T17:06:13;7.75;;;2.72;;
78664;SDS011;67981;51.022;-2.870;2023-08-06T17:08:40;4.20;;;2.13;;
78664;SDS011;67981;51.022;-2.870;2023-08-06T17:11:06;3.88;;;1.60;;
78664;SDS011;67981;51.022;-2.870;2023-08-06T17:13:31;3.70;;;1.88;;
78664;SDS011;67981;51.022;-2.870;2023-08-06T17:16:00;2.25;;;1.27;;
78664;SDS011;67981;51.022;-2.870;2023-08-06T17:18:25;2.30;;;1.20;;
78664;SDS011;67981;51.022;-2.870;2023-08-06T17:20:50;3.33;;;1.50;;
78664;SDS011;67981;51.022;-2.870;2023-08-06T17:23:16;4.95;;;1.50;;
78664;SDS011;67981;51.022;-2.870;2023-08-06T17:25:42;3.17;;;1.15;;
78664;SDS011;67981;51.022;-2.870;2023-08-06T17:28:09;2.35;;;1.48;;
78664;SDS011;67981;51.022;-2.870;2023-08-06T17:30:34;2.47;;;1.35;;
78664;SDS011;67981;51.022;-2.870;2023-08-06T17:33:00;2.35;;;1.40;;
78664;SDS011;67981;51.022;-2.870;2023-08-06T17:35:25;5.20;;;1.30;;
78664;SDS011;67981;51.022;-2.870;2023-08-06T17:37:51;2.83;;;0.93;;
78664;SDS011;67981;51.022;-2.870;2023-08-06T17:40:18;1.60;;;0.90;;
78664;SDS011;67981;51.022;-2.870;2023-08-06T17:42:44;2.90;;;1.10;;
78664;SDS011;67981;51.022;-2.870;2023-08-06T17:45:09;3.70;;;1.50;;
78664;SDS011;67981;51.022;-2.870;2023-08-06T17:47:34;3.33;;;2.38;;
78664;SDS011;67981;51.022;-2.870;2023-08-06T17:50:00;2.13;;;1.10;;
78664;SDS011;67981;51.022;-2.870;2023-08-06T17:52:25;3.13;;;1.10;;
78664;SDS011;67981;51.022;-2.870;2023-08-06T17:54:51;2.53;;;1.20;;
78664;SDS011;67981;51.022;-2.870;2023-08-06T17:57:16;3.28;;;1.25;;
78664;SDS011;67981;51.022;-2.870;2023-08-06T17:59:42;3.90;;;1.42;;
78664;SDS011;67981;51.022;-2.870;2023-08-06T18:02:07;2.38;;;1.30;;
78664;SDS011;67981;51.022;-2.870;2023-08-06T18:04:32;5.75;;;1.40;;
78664;SDS011;67981;51.022;-2.870;2023-08-06T18:06:58;3.95;;;1.52;;
78664;SDS011;67981;51.022;-2.870;2023-08-06T18:09:23;4.03;;;1.83;;
78664;SDS011;67981;51.022;-2.870;2023-08-06T18:11:49;4.70;;;1.63;;
78664;SDS011;67981;51.022;-2.870;2023-08-06T18:14:14;5.07;;;1.30;;
78664;SDS011;67981;51.022;-2.870;2023-08-06T18:16:39;3.80;;;1.13;;
78664;SDS011;67981;51.022;-2.870;2023-08-06T18:19:05;3.97;;;1.42;;
78664;SDS011;67981;51.022;-2.870;2023-08-06T18:21:30;2.55;;;1.35;;
78664;SDS011;67981;51.022;-2.870;2023-08-06T18:23:56;2.42;;;1.20;;
78664;SDS011;67981;51.022;-2.870;2023-08-06T18:26:21;2.80;;;1.08;;
78664;SDS011;67981;51.022;-2.870;2023-08-06T18:28:46;2.97;;;1.48;;
78664;SDS011;67981;51.022;-2.870;2023-08-06T18:31:12;4.88;;;1.40;;
78664;SDS011;67981;51.022;-2.870;2023-08-06T18:33:37;4.30;;;1.65;;
78664;SDS011;67981;51.022;-2.870;2023-08-06T18:36:04;3.45;;;1.23;;
78664;SDS011;67981;51.022;-2.870;2023-08-06T18:38:29;1.90;;;1.10;;
78664;SDS011;67981;51.022;-2.870;2023-08-06T18:40:55;5.03;;;1.83;;
78664;SDS011;67981;51.022;-2.870;2023-08-06T18:43:22;3.15;;;1.40;;
78664;SDS011;67981;51.022;-2.870;2023-08-06T18:45:48;6.57;;;1.55;;
78664;SDS011;67981;51.022;-2.870;2023-08-06T18:48:13;3.57;;;1.27;;
78664;SDS011;67981;51.022;-2.870;2023-08-06T18:50:38;3.23;;;1.20;;
78664;SDS011;67981;51.022;-2.870;2023-08-06T18:53:04;3.97;;;1.45;;
78664;SDS011;67981;51.022;-2.870;2023-08-06T18:55:30;3.78;;;1.60;;
78664;SDS011;67981;51.022;-2.870;2023-08-06T18:58:00;2.47;;;1.42;;
78664;SDS011;67981;51.022;-2.870;2023-08-06T19:00:29;5.32;;;1.95;;
78664;SDS011;67981;51.022;-2.870;2023-08-06T19:02:54;3.35;;;1.65;;
78664;SDS011;67981;51.022;-2.870;2023-08-06T19:05:20;3.13;;;1.67;;
78664;SDS011;67981;51.022;-2.870;2023-08-06T19:07:45;2.92;;;1.35;;
78664;SDS011;67981;51.022;-2.870;2023-08-06T19:10:11;2.80;;;1.30;;
78664;SDS011;67981;51.022;-2.870;2023-08-06T19:12:36;2.75;;;1.10;;
78664;SDS011;67981;51.022;-2.870;2023-08-06T19:15:02;4.15;;;1.70;;
78664;SDS011;67981;51.022;-2.870;2023-08-06T19:17:27;4.32;;;1.48;;
78664;SDS011;67981;51.022;-2.870;2023-08-06T19:19:52;8.32;;;1.88;;
78664;SDS011;67981;51.022;-2.870;2023-08-06T19:22:18;4.88;;;2.17;;
78664;SDS011;67981;51.022;-2.870;2023-08-06T19:24:43;5.80;;;2.65;;
78664;SDS011;67981;51.022;-2.870;2023-08-06T19:27:08;3.40;;;1.37;;
78664;SDS011;67981;51.022;-2.870;2023-08-06T19:29:34;4.72;;;1.67;;
78664;SDS011;67981;51.022;-2.870;2023-08-06T19:32:00;3.70;;;1.33;;
78664;SDS011;67981;51.022;-2.870;2023-08-06T19:34:25;5.70;;;1.60;;
78664;SDS011;67981;51.022;-2.870;2023-08-06T19:36:51;2.17;;;1.35;;
78664;SDS011;67981;51.022;-2.870;2023-08-06T19:39:16;3.15;;;1.40;;
78664;SDS011;67981;51.022;-2.870;2023-08-06T19:41:41;3.55;;;1.23;;
78664;SDS011;67981;51.022;-2.870;2023-08-06T19:44:07;2.13;;;1.20;;
78664;SDS011;67981;51.022;-2.870;2023-08-06T19:46:33;2.95;;;1.13;;
78664;SDS011;67981;51.022;-2.870;2023-08-06T19:48:58;3.73;;;1.67;;
78664;SDS011;67981;51.022;-2.870;2023-08-06T19:51:23;4.63;;;2.40;;
78664;SDS011;67981;51.022;-2.870;2023-08-06T19:53:50;2.97;;;1.42;;
78664;SDS011;67981;51.022;-2.870;2023-08-06T19:56:15;2.47;;;1.10;;
78664;SDS011;67981;51.022;-2.870;2023-08-06T19:58:41;4.60;;;1.42;;
78664;SDS011;67981;51.022;-2.870;2023-08-06T20:01:06;3.33;;;1.40;;
78664;SDS011;67981;51.022;-2.870;2023-08-06T20:03:34;2.50;;;1.17;;
78664;SDS011;67981;51.022;-2.870;2023-08-06T20:06:01;6.35;;;1.55;;
78664;SDS011;67981;51.022;-2.870;2023-08-06T20:08:31;3.90;;;1.63;;
78664;SDS011;67981;51.022;-2.870;2023-08-06T20:10:57;5.28;;;1.13;;
78664;SDS011;67981;51.022;-2.870;2023-08-06T20:13:23;7.28;;;1.83;;
78664;SDS011;67981;51.022;-2.870;2023-08-06T20:15:50;7.40;;;2.05;;
78664;SDS011;67981;51.022;-2.870;2023-08-06T20:18:15;5.03;;;1.70;;
78664;SDS011;67981;51.022;-2.870;2023-08-06T20:20:42;5.70;;;1.63;;
78664;SDS011;67981;51.022;-2.870;2023-08-06T20:23:08;5.95;;;1.95;;
78664;SDS011;67981;51.022;-2.870;2023-08-06T20:25:34;3.03;;;1.17;;
78664;SDS011;67981;51.022;-2.870;2023-08-06T20:27:59;3.25;;;1.58;;
78664;SDS011;67981;51.022;-2.870;2023-08-06T20:30:25;6.60;;;1.85;;
78664;SDS011;67981;51.022;-2.870;2023-08-06T20:32:50;3.80;;;1.20;;
78664;SDS011;67981;51.022;-2.870;2023-08-06T20:35:16;2.05;;;1.27;;
78664;SDS011;67981;51.022;-2.870;2023-08-06T20:37:41;3.58;;;1.42;;
78664;SDS011;67981;51.022;-2.870;2023-08-06T20:40:07;1.98;;;1.15;;
78664;SDS011;67981;51.022;-2.870;2023-08-06T20:42:33;4.57;;;1.52;;
78664;SDS011;67981;51.022;-2.870;2023-08-06T20:44:59;3.20;;;1.45;;
78664;SDS011;67981;51.022;-2.870;2023-08-06T20:47:24;4.53;;;1.77;;
78664;SDS011;67981;51.022;-2.870;2023-08-06T20:49:50;3.92;;;1.95;;
78664;SDS011;67981;51.022;-2.870;2023-08-06T20:52:15;2.67;;;1.45;;
78664;SDS011;67981;51.022;-2.870;2023-08-06T20:54:41;4.72;;;1.95;;
78664;SDS011;67981;51.022;-2.870;2023-08-06T20:57:06;3.03;;;1.63;;
78664;SDS011;67981;51.022;-2.870;2023-08-06T20:59:31;3.83;;;1.75;;
78664;SDS011;67981;51.022;-2.870;2023-08-06T21:01:57;5.10;;;2.00;;
78664;SDS011;67981;51.022;-2.870;2023-08-06T21:04:22;3.47;;;1.70;;
78664;SDS011;67981;51.022;-2.870;2023-08-06T21:06:48;6.20;;;2.33;;
78664;SDS011;67981;51.022;-2.870;2023-08-06T21:09:14;5.32;;;1.83;;
78664;SDS011;67981;51.022;-2.870;2023-08-06T21:11:39;3.75;;;1.60;;